createdAt,value
2018-04-28T00:00:31.407Z,15.90
2018-04-28T00:03:00.871Z,15.90
2018-04-28T00:05:30.127Z,15.90
2018-04-28T00:07:58.468Z,15.90
2018-04-28T00:10:27.415Z,15.80
2018-04-28T00:12:57.146Z,15.80
2018-04-28T00:15:26.192Z,15.80
2018-04-28T00:17:56.104Z,15.80
2018-04-28T00:20:24.723Z,15.80
2018-04-28T00:22:59.586Z,15.80
2018-04-28T00:25:30.344Z,15.80
2018-04-28T00:28:04.684Z,15.80
2018-04-28T00:30:38.760Z,15.90
2018-04-28T00:33:13.015Z,15.90
2018-04-28T00:35:41.325Z,15.80
2018-04-28T00:38:09.471Z,15.90
2018-04-28T00:40:40.384Z,15.90
2018-04-28T00:43:12.426Z,15.90
2018-04-28T00:48:32.942Z,15.90
2018-04-28T00:51:13.204Z,15.90
2018-04-28T00:56:15.070Z,15.90
2018-04-28T00:58:46.759Z,15.90
2018-04-28T01:01:19.547Z,15.90
2018-04-28T01:06:42.755Z,15.90
2018-04-28T01:09:11.745Z,15.90
2018-04-28T01:14:12.125Z,15.80
2018-04-28T01:16:44.771Z,15.80
2018-04-28T01:19:29.095Z,15.70
2018-04-28T01:21:58.047Z,15.70
2018-04-28T01:24:30.680Z,15.70
2018-04-28T01:27:11.442Z,15.70
2018-04-28T01:32:56.595Z,15.70
2018-04-28T01:35:46.507Z,15.60
2018-04-28T01:38:14.735Z,15.60
2018-04-28T01:40:43.799Z,15.50
2018-04-28T01:43:30.363Z,15.50
2018-04-28T01:46:04.854Z,15.50
2018-04-28T01:51:28.902Z,15.50
2018-04-28T01:57:26.963Z,15.50
2018-04-28T01:59:56.115Z,15.40
2018-04-28T02:02:41.779Z,15.40
2018-04-28T02:05:11.454Z,15.40
2018-04-28T02:07:40.414Z,15.40
2018-04-28T02:10:09.782Z,15.30
2018-04-28T02:12:45.627Z,15.30
2018-04-28T02:15:19.215Z,15.30
2018-04-28T02:17:55.435Z,15.30
2018-04-28T02:20:27.894Z,15.20
2018-04-28T02:23:07.075Z,15.20
2018-04-28T02:25:40.754Z,15.10
2018-04-28T02:31:16.291Z,15.10
2018-04-28T02:33:51.199Z,15.00
2018-04-28T02:36:25.654Z,15.00
2018-04-28T02:39:11.172Z,15.00
2018-04-28T02:41:41.967Z,14.90
2018-04-28T02:47:11.152Z,14.90
2018-04-28T02:49:59.994Z,15.00
2018-04-28T02:52:39.880Z,15.00
2018-04-28T02:55:09.890Z,15.00
2018-04-28T02:57:43.839Z,15.00
2018-04-28T03:00:12.903Z,15.00
2018-04-28T03:02:47.716Z,15.00
2018-04-28T03:05:28.331Z,15.00
2018-04-28T03:08:03.091Z,15.00
2018-04-28T03:10:37.094Z,15.00
2018-04-28T03:15:40.683Z,15.00
2018-04-28T03:18:08.671Z,15.00
2018-04-28T03:20:39.539Z,15.10
2018-04-28T03:23:10.286Z,15.10
2018-04-28T03:25:41.604Z,15.00
2018-04-28T03:28:17.923Z,15.00
2018-04-28T03:30:48.563Z,15.00
2018-04-28T03:33:29.083Z,15.10
2018-04-28T03:35:57.472Z,15.10
2018-04-28T03:38:32.064Z,15.10
2018-04-28T03:41:01.455Z,15.10
2018-04-28T03:43:30.746Z,15.10
2018-04-28T03:46:06.515Z,15.10
2018-04-28T03:48:40.258Z,15.10
2018-04-28T03:51:30.667Z,15.10
2018-04-28T03:56:34.395Z,15.10
2018-04-28T03:59:15.570Z,15.10
2018-04-28T04:01:55.299Z,15.10
2018-04-28T04:07:16.534Z,15.10
2018-04-28T04:09:46.639Z,15.10
2018-04-28T04:15:34.222Z,15.20
2018-04-28T04:21:33.858Z,15.10
2018-04-28T04:24:14.470Z,15.10
2018-04-28T04:27:06.246Z,15.00
2018-04-28T04:30:00.855Z,15.00
2018-04-28T04:32:28.841Z,15.00
2018-04-28T04:35:01.633Z,14.90
2018-04-28T04:37:38.043Z,14.90
2018-04-28T04:43:01.761Z,14.90
2018-04-28T04:45:35.610Z,14.90
2018-04-28T04:48:18.543Z,14.90
2018-04-28T04:50:54.466Z,14.90
2018-04-28T04:53:27.859Z,14.90
2018-04-28T04:56:03.887Z,14.90
2018-04-28T05:01:35.016Z,15.00
2018-04-28T05:04:10.691Z,14.90
2018-04-28T05:06:44.630Z,14.90
2018-04-28T05:12:12.984Z,15.00
2018-04-28T05:14:48.003Z,15.00
2018-04-28T05:17:34.166Z,15.00
2018-04-28T05:20:14.162Z,15.00
2018-04-28T05:22:51.867Z,15.10
2018-04-28T05:25:33.251Z,15.10
2018-04-28T05:28:14.650Z,15.10
2018-04-28T05:30:48.155Z,15.10
2018-04-28T05:33:23.529Z,15.10
2018-04-28T05:36:00.324Z,15.10
2018-04-28T05:38:39.882Z,15.20
2018-04-28T05:41:19.675Z,15.20
2018-04-28T05:43:59.455Z,15.30
2018-04-28T05:49:24.511Z,15.30
2018-04-28T05:51:59.278Z,15.30
2018-04-28T05:54:52.403Z,15.30
2018-04-28T06:00:47.637Z,15.40
2018-04-28T06:03:28.793Z,15.40
2018-04-28T06:06:01.403Z,15.50
2018-04-28T06:11:26.007Z,15.50
2018-04-28T06:16:55.330Z,15.60
2018-04-28T06:19:31.507Z,15.70
2018-04-28T06:22:01.038Z,15.70
2018-04-28T06:24:29.795Z,15.70
2018-04-28T06:26:59.011Z,15.70
2018-04-28T06:29:27.410Z,15.80
2018-04-28T06:31:55.402Z,15.80
2018-04-28T06:36:59.194Z,15.80
2018-04-28T06:39:27.590Z,15.80
2018-04-28T06:41:55.954Z,15.80
2018-04-28T06:46:54.002Z,15.90
2018-04-28T06:49:22.382Z,15.90
2018-04-28T06:51:50.426Z,15.90
2018-04-28T06:56:48.430Z,15.90
2018-04-28T06:59:16.860Z,15.90
2018-04-28T07:01:44.847Z,15.80
2018-04-28T07:04:13.230Z,15.80
2018-04-28T07:06:42.078Z,15.80
2018-04-28T07:09:10.058Z,15.90
2018-04-28T07:11:38.051Z,16.00
2018-04-28T07:14:07.592Z,16.10
2018-04-28T07:16:35.578Z,16.20
2018-04-28T07:19:04.330Z,16.30
2018-04-28T07:24:01.994Z,16.70
2018-04-28T07:26:30.034Z,16.80
2018-04-28T07:28:58.014Z,16.90
2018-04-28T07:33:55.287Z,17.20
2018-04-28T07:38:53.290Z,17.50
2018-04-28T07:41:21.307Z,17.60
2018-04-28T07:43:49.303Z,17.70
2018-04-28T07:46:17.336Z,17.80
2018-04-28T07:48:45.347Z,17.80
2018-04-28T07:51:14.838Z,17.90
2018-04-28T07:56:13.419Z,17.90
2018-04-28T07:58:42.171Z,17.80
2018-04-28T08:01:10.211Z,17.70
2018-04-28T08:03:38.194Z,17.60
2018-04-28T08:06:06.186Z,17.50
2018-04-28T08:08:34.211Z,17.50
2018-04-28T08:16:00.731Z,17.50
2018-04-28T08:18:29.106Z,17.60
2018-04-28T08:20:57.126Z,17.60
2018-04-28T08:23:25.115Z,17.60
2018-04-28T08:25:53.130Z,17.70
2018-04-28T08:30:51.550Z,17.70
2018-04-28T08:33:19.574Z,17.70
2018-04-28T08:35:47.562Z,17.70
2018-04-28T08:38:15.559Z,17.60
2018-04-28T08:43:13.983Z,17.60
2018-04-28T08:45:42.369Z,17.70
2018-04-28T08:48:10.701Z,17.90
2018-04-28T08:50:38.382Z,18.00
2018-04-28T08:55:36.055Z,18.40
2018-04-28T08:58:04.804Z,18.60
2018-04-28T09:00:34.299Z,18.70
2018-04-28T09:03:03.104Z,18.80
2018-04-28T09:05:32.231Z,19.00
2018-04-28T09:08:00.615Z,19.00
2018-04-28T09:10:28.886Z,19.10
2018-04-28T09:12:58.624Z,19.20
2018-04-28T09:15:26.842Z,19.20
2018-04-28T09:20:24.960Z,19.60
2018-04-28T09:22:53.191Z,20.00
2018-04-28T09:25:22.223Z,20.20
2018-04-28T09:27:51.206Z,20.30
2018-04-28T09:30:19.826Z,20.40
2018-04-28T09:35:17.551Z,20.50
2018-04-28T09:37:46.557Z,20.60
2018-04-28T09:40:14.857Z,20.80
2018-04-28T09:42:44.591Z,21.00
2018-04-28T09:45:12.817Z,21.30
2018-04-28T09:47:42.554Z,21.40
2018-04-28T09:50:11.170Z,21.50
2018-04-28T09:52:40.530Z,21.30
2018-04-28T09:57:38.658Z,20.90
2018-04-28T10:00:23.553Z,20.60
2018-04-28T10:02:51.778Z,20.50
2018-04-28T10:05:20.012Z,20.40
2018-04-28T10:07:50.081Z,20.50
2018-04-28T10:10:18.306Z,20.40
2018-04-28T10:12:47.390Z,20.30
2018-04-28T10:17:45.451Z,20.00
2018-04-28T10:20:13.823Z,19.90
2018-04-28T10:22:42.023Z,19.70
2018-04-28T10:25:10.247Z,19.60
2018-04-28T10:27:38.474Z,19.50
2018-04-28T10:30:07.181Z,19.40
2018-04-28T10:32:36.910Z,19.40
2018-04-28T10:35:05.139Z,19.50
2018-04-28T10:37:34.547Z,19.60
2018-04-28T10:40:03.214Z,19.60
2018-04-28T10:42:31.479Z,19.60
2018-04-28T10:45:01.213Z,19.60
2018-04-28T10:49:58.962Z,19.80
2018-04-28T10:52:27.183Z,19.90
2018-04-28T10:54:56.223Z,19.80
2018-04-28T10:57:25.211Z,19.80
2018-04-28T10:59:53.454Z,19.80
2018-04-28T11:02:22.124Z,19.90
2018-04-28T11:04:50.375Z,19.90
2018-04-28T11:07:18.599Z,19.90
2018-04-28T11:09:46.863Z,20.10
2018-04-28T11:12:15.845Z,20.20
2018-04-28T11:14:44.127Z,20.30
2018-04-28T11:19:42.595Z,20.30
2018-04-28T11:22:10.866Z,20.20
2018-04-28T11:27:08.543Z,20.40
2018-04-28T11:29:37.954Z,20.60
2018-04-28T11:32:06.947Z,20.90
2018-04-28T11:34:35.599Z,21.00
2018-04-28T11:37:03.876Z,21.10
2018-04-28T11:39:32.090Z,21.10
2018-04-28T11:42:00.323Z,21.00
2018-04-28T11:44:29.733Z,20.80
2018-04-28T11:46:57.951Z,20.60
2018-04-28T11:49:27.678Z,20.50
2018-04-28T11:51:56.708Z,20.30
2018-04-28T11:56:54.387Z,20.30
2018-04-28T11:59:22.669Z,20.30
2018-04-28T12:01:51.292Z,20.20
2018-04-28T12:04:20.283Z,20.10
2018-04-28T12:06:48.544Z,20.00
2018-04-28T12:09:16.762Z,19.90
2018-04-28T12:11:45.751Z,19.90
2018-04-28T12:14:14.867Z,20.00
2018-04-28T12:16:43.088Z,20.30
2018-04-28T12:21:41.567Z,20.80
2018-04-28T12:24:09.791Z,21.00
2018-04-28T12:26:38.019Z,21.10
2018-04-28T12:31:35.755Z,21.20
2018-04-28T12:34:03.974Z,21.20
2018-04-28T12:39:02.842Z,20.90
2018-04-28T12:41:32.226Z,20.80
2018-04-28T12:44:00.922Z,20.70
2018-04-28T12:46:29.171Z,20.50
2018-04-28T12:48:58.532Z,20.40
2018-04-28T12:51:26.838Z,20.30
2018-04-28T12:53:55.064Z,20.30
2018-04-28T12:56:23.287Z,20.30
2018-04-28T12:58:51.555Z,20.40
2018-04-28T13:03:49.227Z,20.40
2018-04-28T13:06:17.492Z,20.50
2018-04-28T13:08:45.729Z,20.60
2018-04-28T13:13:44.232Z,20.60
2018-04-28T13:18:42.662Z,20.30
2018-04-28T13:21:12.160Z,20.20
2018-04-28T13:23:40.361Z,20.00
2018-04-28T13:28:38.894Z,19.70
2018-04-28T13:33:36.542Z,19.50
2018-04-28T13:36:05.572Z,19.30
2018-04-28T13:38:34.558Z,19.30
2018-04-28T13:41:02.920Z,19.30
2018-04-28T13:48:33.955Z,19.30
2018-04-28T13:51:02.102Z,19.40
2018-04-28T13:53:31.104Z,19.40
2018-04-28T13:55:59.437Z,19.60
2018-04-28T13:58:27.595Z,19.70
2018-04-28T14:00:55.823Z,19.70
2018-04-28T14:03:24.082Z,19.80
2018-04-28T14:05:52.704Z,19.80
2018-04-28T14:08:22.098Z,20.00
2018-04-28T14:10:51.156Z,20.00
2018-04-28T14:15:48.830Z,20.10
2018-04-28T14:18:17.078Z,20.10
2018-04-28T14:20:46.504Z,20.10
2018-04-28T14:23:15.119Z,20.10
2018-04-28T14:28:12.907Z,20.10
2018-04-28T14:30:41.136Z,20.10
2018-04-28T14:33:09.619Z,20.10
2018-04-28T14:35:37.846Z,20.10
2018-04-28T14:38:06.067Z,20.10
2018-04-28T14:43:05.574Z,20.10
2018-04-28T14:45:33.874Z,20.10
2018-04-28T14:48:02.099Z,20.10
2018-04-28T14:50:30.318Z,20.10
2018-04-28T14:52:58.599Z,20.20
2018-04-28T14:55:26.827Z,20.20
2018-04-28T14:57:55.083Z,20.20
2018-04-28T15:02:53.350Z,20.10
2018-04-28T15:05:22.416Z,20.00
2018-04-28T15:07:50.674Z,19.90
2018-04-28T15:10:18.899Z,19.80
2018-04-28T15:15:17.370Z,19.70
2018-04-28T15:17:46.022Z,19.60
2018-04-28T15:20:15.023Z,19.60
2018-04-28T15:22:43.238Z,19.60
2018-04-28T15:25:11.939Z,19.50
2018-04-28T15:27:41.546Z,19.50
2018-04-28T15:30:10.543Z,19.60
2018-04-28T15:35:08.270Z,19.70
2018-04-28T15:37:36.498Z,19.60
2018-04-28T15:40:06.256Z,19.70
2018-04-28T15:42:34.551Z,19.70
2018-04-28T15:45:04.415Z,19.70
2018-04-28T15:47:32.630Z,19.60
2018-04-28T15:50:01.587Z,19.60
2018-04-28T15:52:30.668Z,19.60
2018-04-28T15:54:58.858Z,19.60
2018-04-28T15:57:27.481Z,19.60
2018-04-28T16:02:25.200Z,19.60
2018-04-28T16:04:53.426Z,19.70
2018-04-28T16:09:51.551Z,19.70
2018-04-28T16:12:21.351Z,19.60
2018-04-28T16:14:49.688Z,19.60
2018-04-28T16:17:17.843Z,19.50
2018-04-28T16:19:46.835Z,19.40
2018-04-28T16:24:44.556Z,19.40
2018-04-28T16:27:14.320Z,19.40
2018-04-28T16:29:42.539Z,19.30
2018-04-28T16:32:10.765Z,19.20
2018-04-28T16:34:39.395Z,19.20
2018-04-28T16:37:07.655Z,19.10
2018-04-28T16:39:36.642Z,19.00
2018-04-28T16:42:04.870Z,19.00
2018-04-28T16:44:33.142Z,18.90
2018-04-28T16:47:01.366Z,18.90
2018-04-28T16:52:00.210Z,18.80
2018-04-28T16:54:29.609Z,18.80
2018-04-28T16:56:57.793Z,18.70
2018-04-28T16:59:26.050Z,18.70
2018-04-28T17:01:55.787Z,18.70
2018-04-28T17:04:24.774Z,18.70
2018-04-28T17:06:53.052Z,18.70
2018-04-28T17:09:22.034Z,18.70
2018-04-28T17:11:51.023Z,18.60
2018-04-28T17:14:19.294Z,18.60
2018-04-28T17:16:48.352Z,18.60
2018-04-28T17:19:16.500Z,18.60
2018-04-28T17:21:44.754Z,18.60
2018-04-28T17:24:13.743Z,18.50
2018-04-28T17:26:42.735Z,18.60
2018-04-28T17:29:10.990Z,18.50
2018-04-28T17:31:39.210Z,18.50
2018-04-28T17:34:08.246Z,18.40
2018-04-28T17:36:37.226Z,18.40
2018-04-28T17:41:35.702Z,18.40
2018-04-28T17:44:03.926Z,18.40
2018-04-28T17:49:02.043Z,18.40
2018-04-28T17:51:30.275Z,18.40
2018-04-28T17:53:58.495Z,18.40
2018-04-28T17:58:56.226Z,18.20
2018-04-28T18:01:24.449Z,18.20
2018-04-28T18:03:52.716Z,18.10
2018-04-28T18:06:20.935Z,18.00
2018-04-28T18:08:49.163Z,17.90
2018-04-28T18:11:18.931Z,17.90
2018-04-28T18:13:47.151Z,17.90
2018-04-28T18:16:15.373Z,17.90
2018-04-28T18:18:43.639Z,17.90
2018-04-28T18:21:11.863Z,17.90
2018-04-28T18:23:40.087Z,17.90
2018-04-28T18:26:08.359Z,17.90
2018-04-28T18:28:37.710Z,17.90
2018-04-28T18:31:05.935Z,17.80
2018-04-28T18:36:04.093Z,17.80
2018-04-28T18:38:33.081Z,17.80
2018-04-28T18:41:02.878Z,17.70
2018-04-28T18:43:32.611Z,17.80
2018-04-28T18:46:00.838Z,17.70
2018-04-28T18:48:29.107Z,17.70
2018-04-28T18:50:58.839Z,17.70
2018-04-28T18:53:27.062Z,17.70
2018-04-28T18:55:55.340Z,17.70
2018-04-28T18:58:23.550Z,17.70
2018-04-28T19:00:51.784Z,17.70
2018-04-28T19:03:20.049Z,17.60
2018-04-28T19:05:48.274Z,17.60
2018-04-28T19:08:17.263Z,17.60
2018-04-28T19:10:45.942Z,17.60
2018-04-28T19:13:15.674Z,17.50
2018-04-28T19:18:13.782Z,17.50
2018-04-28T19:20:42.015Z,17.50
2018-04-28T19:23:10.230Z,17.60
2018-04-28T19:25:39.266Z,17.50
2018-04-28T19:28:08.250Z,17.40
2018-04-28T19:30:37.242Z,17.40
2018-04-28T19:33:05.518Z,17.40
2018-04-28T19:35:34.519Z,17.40
2018-04-28T19:38:02.743Z,17.40
2018-04-28T19:40:31.023Z,17.40
2018-04-28T19:45:29.835Z,17.40
2018-04-28T19:47:58.332Z,17.40
2018-04-28T19:50:27.295Z,17.30
2018-04-28T19:52:55.528Z,17.40
2018-04-28T19:55:23.903Z,17.30
2018-04-28T19:57:52.182Z,17.30
2018-04-28T20:00:20.463Z,17.30
2018-04-28T20:05:18.927Z,17.30
2018-04-28T20:07:48.663Z,17.30
2018-04-28T20:10:16.935Z,17.30
2018-04-28T20:12:45.159Z,17.30
2018-04-28T20:15:13.386Z,17.30
2018-04-28T20:17:42.415Z,17.30
2018-04-28T20:20:11.403Z,17.30
2018-04-28T20:22:51.375Z,17.30
2018-04-28T20:25:24.201Z,17.30
2018-04-28T20:27:53.250Z,17.30
2018-04-28T20:30:21.476Z,17.30
2018-04-28T20:32:49.695Z,17.30
2018-04-28T20:35:19.482Z,17.20
2018-04-28T20:37:47.711Z,17.30
2018-04-28T20:40:15.935Z,17.20
2018-04-28T20:42:44.602Z,17.20
2018-04-28T20:47:43.783Z,17.10
2018-04-28T20:50:12.263Z,17.10
2018-04-28T20:52:40.482Z,17.10
2018-04-28T20:55:08.715Z,17.00
2018-04-28T20:57:36.979Z,17.10
2018-04-28T21:00:05.247Z,17.10
2018-04-28T21:02:33.471Z,17.10
2018-04-28T21:07:31.203Z,17.10
2018-04-28T21:09:59.426Z,17.00
2018-04-28T21:14:57.176Z,17.00
2018-04-28T21:17:25.398Z,16.90
2018-04-28T21:19:53.667Z,16.90
2018-04-28T21:24:52.102Z,16.90
2018-04-28T21:27:20.366Z,16.90
2018-04-28T21:29:48.596Z,16.90
2018-04-28T21:32:16.819Z,16.90
2018-04-28T21:34:45.105Z,16.90
2018-04-28T21:37:14.087Z,16.90
2018-04-28T21:39:42.310Z,16.90
2018-04-28T21:42:11.334Z,16.80
2018-04-28T21:47:09.011Z,16.80
2018-04-28T21:52:06.738Z,16.80
2018-04-28T21:54:34.967Z,16.70
2018-04-28T21:57:03.234Z,16.70
2018-04-28T22:02:02.082Z,16.60
2018-04-28T22:04:31.870Z,16.70
2018-04-28T22:07:01.602Z,16.60
2018-04-28T22:09:29.827Z,16.60
2018-04-28T22:11:58.490Z,16.50
2018-04-28T22:14:26.719Z,16.50
2018-04-28T22:16:56.535Z,16.40
2018-04-28T22:19:24.794Z,16.40
2018-04-28T22:21:53.023Z,16.40
2018-04-28T22:24:21.258Z,16.30
2018-04-28T22:26:51.323Z,16.20
2018-04-28T22:34:18.894Z,16.10
2018-04-28T22:36:48.631Z,16.00
2018-04-28T22:39:17.627Z,16.00
2018-04-28T22:41:45.903Z,15.90
2018-04-28T22:44:14.132Z,15.90
2018-04-28T22:46:43.866Z,15.90
2018-04-28T22:49:12.139Z,15.80
2018-04-28T22:51:40.358Z,15.80
2018-04-28T22:54:09.718Z,15.80
2018-04-28T22:56:38.750Z,15.80
2018-04-28T22:59:07.739Z,15.80
2018-04-28T23:01:35.957Z,15.80
2018-04-28T23:04:05.125Z,15.80
2018-04-28T23:06:34.101Z,15.80
2018-04-28T23:09:03.096Z,15.80
2018-04-28T23:11:32.490Z,15.70
2018-04-28T23:14:01.483Z,15.70
2018-04-28T23:16:30.474Z,15.60
2018-04-28T23:18:59.139Z,15.60
2018-04-28T23:21:27.358Z,15.50
2018-04-28T23:23:55.587Z,15.50
2018-04-28T23:26:23.883Z,15.40
2018-04-28T23:28:52.110Z,15.30
2018-04-28T23:33:49.850Z,15.20
2018-04-28T23:36:18.072Z,15.20
2018-04-28T23:38:46.299Z,15.10
2018-04-28T23:41:14.560Z,15.00
2018-04-28T23:43:42.786Z,15.00
2018-04-28T23:46:12.142Z,14.90
2018-04-28T23:48:40.406Z,14.90
2018-04-28T23:51:08.626Z,14.80
2018-04-28T23:53:38.362Z,14.70
2018-04-28T23:56:06.645Z,14.60
2018-04-28T23:58:34.859Z,14.60
